Time;durP1;ratioP1;P1;durP2;ratioP2;P2;SDS_P1;SDS_P2;PMS_P1;PMS_P2;Temp;Humidity;BMP_temperature;BMP_pressure;BME280_temperature;BME280_humidity;BME280_pressure;Samples;Min_cycle;Max_cycle;Signal;HPM_P1;HPM_P2
2023/09/13 00:02:20;;;;;;;;;;;;;;;19.83;nan;100061.69;5022805;28;19967;-85
2023/09/13 00:04:46;;;;;;;;;;;;;;;19.79;nan;100071.25;5025014;28;20302;-82
2023/09/13 00:07:11;;;;;;;;;;;;;;;19.75;nan;100086.13;5028307;28;19917;-83
2023/09/13 00:09:40;;;;;;;;;;;;;;;19.70;nan;100082.25;5010834;28;19921;-82
2023/09/13 00:12:06;;;;;;;;;;;;;;;19.61;nan;100085.41;5023607;28;19920;-82
2023/09/13 00:14:31;;;;;;;;;;;;;;;19.53;nan;100089.22;5028306;28;19932;-84
2023/09/13 00:16:57;;;;;;;;;;;;;;;19.52;nan;100079.50;5024463;28;19917;-83
2023/09/13 00:19:22;;;;;;;;;;;;;;;19.53;nan;100086.53;5024181;28;19926;-82
2023/09/13 00:21:48;;;;;;;;;;;;;;;19.56;nan;100087.94;5025056;28;19923;-84
2023/09/13 00:24:13;;;;;;;;;;;;;;;19.56;nan;100082.59;5025822;28;19921;-81
2023/09/13 00:26:38;;;;;;;;;;;;;;;19.55;nan;100086.31;5029277;28;19917;-82
2023/09/13 00:29:03;;;;;;;;;;;;;;;19.55;nan;100078.28;5019303;28;20180;-86
2023/09/13 00:31:29;;;;;;;;;;;;;;;19.54;nan;100064.03;5017403;28;19921;-83
2023/09/13 00:33:54;;;;;;;;;;;;;;;19.55;nan;100070.22;5019101;28;20736;-82
2023/09/13 00:36:19;;;;;;;;;;;;;;;19.53;nan;100068.56;5019708;28;19925;-81
2023/09/13 00:38:44;;;;;;;;;;;;;;;19.52;nan;100071.47;5022223;28;20426;-82
2023/09/13 00:41:10;;;;;;;;;;;;;;;19.47;nan;100068.63;5022706;28;19917;-83
2023/09/13 00:43:35;;;;;;;;;;;;;;;19.39;nan;100066.25;5021714;28;20211;-82
2023/09/13 00:46:01;;;;;;;;;;;;;;;19.28;nan;100065.09;5018688;28;19964;-85
2023/09/13 00:48:28;;;;;;;;;;;;;;;19.19;nan;100056.53;5016570;28;19918;-82
2023/09/13 00:50:53;;;;;;;;;;;;;;;19.15;nan;100079.44;5011432;28;19916;-82
2023/09/13 00:53:19;;;;;;;;;;;;;;;19.16;nan;100078.41;5029133;28;20031;-83
2023/09/13 00:55:45;;;;;;;;;;;;;;;19.18;nan;100080.88;5030175;28;19917;-81
2023/09/13 00:58:11;;;;;;;;;;;;;;;19.21;nan;100092.00;5012649;28;19937;-85
2023/09/13 01:00:36;;;;;;;;;;;;;;;19.23;nan;100100.59;5021145;28;19913;-85
2023/09/13 01:03:04;;;;;;;;;;;;;;;19.18;nan;100100.44;5024686;28;19921;-81
2023/09/13 01:05:29;;;;;;;;;;;;;;;19.10;nan;100095.38;5011675;28;19953;-82
2023/09/13 01:07:54;;;;;;;;;;;;;;;19.03;nan;100089.25;5030395;28;19925;-83
2023/09/13 01:10:19;;;;;;;;;;;;;;;18.98;nan;100087.22;5021840;28;20016;-82
2023/09/13 01:12:45;;;;;;;;;;;;;;;18.99;nan;100099.56;5016063;28;19924;-83
2023/09/13 01:15:10;;;;;;;;;;;;;;;19.02;nan;100103.66;5031692;28;19968;-82
2023/09/13 01:17:39;;;;;;;;;;;;;;;19.04;nan;100102.44;5030554;28;19913;-82
2023/09/13 01:20:34;;;;;;;;;;;;;;;19.07;nan;100101.16;4997731;28;19914;-81
2023/09/13 01:23:02;;;;;;;;;;;;;;;19.08;nan;100108.97;4981379;28;20100;-85
2023/09/13 01:25:36;;;;;;;;;;;;;;;19.07;nan;100106.53;5031786;28;19913;-83
2023/09/13 01:28:02;;;;;;;;;;;;;;;;;;5013877;28;20509;-81
2023/09/13 01:30:28;;;;;;;;;;;;;;;19.03;nan;100111.50;5018724;28;19924;-84
2023/09/13 01:32:54;;;;;;;;;;;;;;;19.01;nan;100097.47;5009054;28;20074;-84
2023/09/13 01:35:19;;;;;;;;;;;;;;;18.98;nan;100097.94;5022985;28;19928;-85
2023/09/13 01:37:45;;;;;;;;;;;;;;;18.94;nan;100101.25;5022956;28;20271;-83
2023/09/13 01:40:10;;;;;;;;;;;;;;;18.85;nan;100104.22;5025261;28;20396;-82
2023/09/13 01:42:36;;;;;;;;;;;;;;;18.84;nan;100094.50;5009372;28;19921;-84
2023/09/13 01:45:03;;;;;;;;;;;;;;;18.85;nan;100098.84;5015597;28;19921;-86
2023/09/13 01:47:28;;;;;;;;;;;;;;;;;;5023494;28;19917;-82
2023/09/13 01:49:54;;;;;;;;;;;;;;;18.87;nan;100112.81;5031508;28;19917;-83
2023/09/13 01:52:19;;;;;;;;;;;;;;;18.89;nan;100110.75;5024771;28;20440;-80
2023/09/13 01:54:44;;;;;;;;;;;;;;;18.89;nan;100100.03;5028582;28;19952;-81
2023/09/13 01:57:10;;;;;;;;;;;;;;;18.87;nan;100107.47;5029113;28;20092;-82
2023/09/13 01:59:35;;;;;;;;;;;;;;;18.82;nan;100120.69;5013957;28;19967;-80
2023/09/13 02:02:00;;;;;;;;;;;;;;;18.77;nan;100128.56;5031291;28;19924;-82
2023/09/13 02:04:31;;;;;;;;;;;;;;;18.72;nan;100125.69;5028472;28;19917;-82
2023/09/13 02:06:57;;;;;;;;;;;;;;;18.64;nan;100139.34;5026384;28;19921;-82
2023/09/13 02:09:22;;;;;;;;;;;;;;;18.60;nan;100146.97;5012362;28;20298;-82
2023/09/13 02:11:47;;;;;;;;;;;;;;;;;;5029739;28;20647;-82
2023/09/13 02:14:12;;;;;;;;;;;;;;;18.54;nan;100139.78;5027924;28;20421;-84
2023/09/13 02:16:37;;;;;;;;;;;;;;;18.50;nan;100140.44;5025772;28;19948;-80
2023/09/13 02:19:04;;;;;;;;;;;;;;;18.46;nan;100130.13;5030414;28;19917;-83
2023/09/13 02:21:29;;;;;;;;;;;;;;;18.46;nan;100137.34;5016056;28;20336;-85
2023/09/13 02:23:54;;;;;;;;;;;;;;;18.42;nan;100136.97;5028312;28;20332;-81
2023/09/13 02:26:19;;;;;;;;;;;;;;;;;;5031145;28;19924;-83
2023/09/13 02:28:44;;;;;;;;;;;;;;;18.41;nan;100140.66;5030736;28;20002;-83
2023/09/13 02:31:09;;;;;;;;;;;;;;;18.40;nan;100146.22;5015433;28;20005;-86
2023/09/13 02:33:34;;;;;;;;;;;;;;;18.40;nan;100143.53;5028458;28;19917;-81
2023/09/13 02:36:00;;;;;;;;;;;;;;;18.40;nan;100122.97;5029009;28;19949;-83
2023/09/13 02:38:25;;;;;;;;;;;;;;;18.41;nan;100135.31;5035870;28;20274;-81
2023/09/13 02:40:50;;;;;;;;;;;;;;;18.38;nan;100130.38;5032197;28;19917;-83
2023/09/13 02:43:15;;;;;;;;;;;;;;;18.36;nan;100100.34;5027908;28;19921;-82
2023/09/13 02:45:40;;;;;;;;;;;;;;;18.35;nan;100128.16;5026792;28;19980;-85
2023/09/13 02:48:06;;;;;;;;;;;;;;;18.33;nan;100134.72;5029653;28;19921;-83
2023/09/13 02:50:31;;;;;;;;;;;;;;;18.28;nan;100140.69;5031615;28;19948;-83
2023/09/13 02:52:56;;;;;;;;;;;;;;;18.26;nan;100140.13;5018568;28;19913;-82
2023/09/13 02:55:21;;;;;;;;;;;;;;;18.27;nan;100144.44;5010129;28;19924;-84
2023/09/13 02:57:46;;;;;;;;;;;;;;;18.28;nan;100134.53;5035178;28;20004;-81
2023/09/13 03:00:12;;;;;;;;;;;;;;;18.31;nan;100140.31;5030871;28;19928;-82
2023/09/13 03:02:38;;;;;;;;;;;;;;;18.36;nan;100132.44;5030040;28;19921;-82
2023/09/13 03:05:05;;;;;;;;;;;;;;;18.41;nan;100139.84;5035291;28;19928;-83
2023/09/13 03:07:30;;;;;;;;;;;;;;;18.44;nan;100145.59;5035458;28;19917;-83
2023/09/13 03:09:57;;;;;;;;;;;;;;;18.43;nan;100143.94;5040059;28;19987;-81
2023/09/13 03:12:22;;;;;;;;;;;;;;;18.43;nan;100143.94;5034666;28;19980;-84
2023/09/13 03:14:47;;;;;;;;;;;;;;;;;;5035189;28;19925;-83
2023/09/13 03:17:13;;;;;;;;;;;;;;;18.40;nan;100141.72;5031845;28;19913;-83
2023/09/13 03:19:38;;;;;;;;;;;;;;;18.40;nan;100155.09;5034710;28;19916;-83
2023/09/13 03:22:04;;;;;;;;;;;;;;;18.40;nan;100149.75;5032792;28;20507;-82
2023/09/13 03:24:30;;;;;;;;;;;;;;;18.43;nan;100151.16;5018545;28;20362;-82
2023/09/13 03:26:55;;;;;;;;;;;;;;;18.48;nan;100145.19;5012642;28;20321;-82
2023/09/13 03:29:20;;;;;;;;;;;;;;;18.49;nan;100150.31;5034910;28;19955;-81
2023/09/13 03:31:45;;;;;;;;;;;;;;;18.52;nan;100135.66;5016454;28;20374;-83
2023/09/13 03:34:11;;;;;;;;;;;;;;;18.53;nan;100142.69;5032205;28;19917;-83
2023/09/13 03:36:36;;;;;;;;;;;;;;;18.51;nan;100150.91;5030777;28;19921;-82
2023/09/13 03:39:01;;;;;;;;;;;;;;;18.47;nan;100144.34;5028926;28;19963;-83
2023/09/13 03:41:26;;;;;;;;;;;;;;;18.42;nan;100136.97;5016924;28;19928;-81
2023/09/13 03:43:52;;;;;;;;;;;;;;;18.42;nan;100144.16;5027268;28;19928;-82
2023/09/13 03:46:17;;;;;;;;;;;;;;;18.40;nan;100154.25;5028432;28;19917;-82
2023/09/13 03:48:42;;;;;;;;;;;;;;;18.39;nan;100148.09;5026847;28;19925;-83
2023/09/13 03:51:08;;;;;;;;;;;;;;;18.41;nan;100139.84;5022994;28;20012;-85
2023/09/13 03:53:34;;;;;;;;;;;;;;;18.42;nan;100153.03;5022061;28;20336;-85
2023/09/13 03:56:00;;;;;;;;;;;;;;;18.42;nan;100153.03;5024591;28;19924;-81
2023/09/13 03:58:25;;;;;;;;;;;;;;;18.40;nan;100151.56;5027338;28;20248;-83
2023/09/13 04:00:50;;;;;;;;;;;;;;;18.37;nan;100150.13;5030248;28;20516;-82
2023/09/13 04:03:16;;;;;;;;;;;;;;;18.36;nan;100142.34;5028245;28;19929;-86
2023/09/13 04:05:42;;;;;;;;;;;;;;;18.34;nan;100144.41;5025465;28;20007;-82
2023/09/13 04:08:08;;;;;;;;;;;;;;;18.30;nan;100132.47;5012120;28;19917;-84
2023/09/13 04:10:33;;;;;;;;;;;;;;;;;;5026313;28;19932;-82
2023/09/13 04:12:58;;;;;;;;;;;;;;;18.28;nan;100151.41;5009195;28;19917;-84
2023/09/13 04:15:23;;;;;;;;;;;;;;;18.28;nan;100147.91;5028069;28;19979;-81
2023/09/13 04:17:49;;;;;;;;;;;;;;;18.25;nan;100147.31;5031969;28;19921;-81
2023/09/13 04:20:14;;;;;;;;;;;;;;;18.23;nan;100159.25;5026186;28;19917;-85
2023/09/13 04:22:39;;;;;;;;;;;;;;;18.21;nan;100135.41;5015265;28;19921;-82
2023/09/13 04:25:05;;;;;;;;;;;;;;;18.21;nan;100145.25;5031008;28;20390;-82
2023/09/13 04:27:30;;;;;;;;;;;;;;;18.20;nan;100139.09;5029624;28;19925;-83
2023/09/13 04:29:55;;;;;;;;;;;;;;;18.18;nan;100140.34;5025366;28;20549;-84
2023/09/13 04:32:21;;;;;;;;;;;;;;;;;;5029346;28;19921;-82
2023/09/13 04:34:46;;;;;;;;;;;;;;;18.20;nan;100148.97;5009321;28;19924;-82
2023/09/13 04:37:12;;;;;;;;;;;;;;;18.15;nan;100152.28;5024974;28;19917;-83
2023/09/13 04:39:37;;;;;;;;;;;;;;;18.08;nan;100143.47;5030745;28;19917;-83
2023/09/13 04:42:02;;;;;;;;;;;;;;;18.03;nan;100144.09;5030941;28;19917;-83
2023/09/13 04:44:27;;;;;;;;;;;;;;;18.00;nan;100144.50;5029668;28;19917;-83
2023/09/13 04:46:52;;;;;;;;;;;;;;;17.94;nan;100148.00;5031998;28;19917;-81
2023/09/13 04:49:18;;;;;;;;;;;;;;;17.93;nan;100149.06;5009004;28;19939;-82
2023/09/13 04:51:43;;;;;;;;;;;;;;;17.90;nan;100148.63;5016022;28;19948;-83
2023/09/13 04:54:08;;;;;;;;;;;;;;;17.87;nan;100133.84;5020545;28;19925;-82
2023/09/13 04:56:34;;;;;;;;;;;;;;;17.85;nan;100140.44;5013521;28;19928;-83
2023/09/13 04:58:59;;;;;;;;;;;;;;;17.83;nan;100138.78;5022759;28;19964;-83
2023/09/13 05:01:24;;;;;;;;;;;;;;;17.84;nan;100139.59;5020854;28;20397;-84
2023/09/13 05:03:49;;;;;;;;;;;;;;;17.85;nan;100145.78;5022434;28;19921;-83
2023/09/13 05:06:15;;;;;;;;;;;;;;;17.87;nan;100155.22;5012709;28;20003;-83
2023/09/13 05:08:41;;;;;;;;;;;;;;;17.92;nan;100151.94;5027169;28;19967;-83
2023/09/13 05:11:06;;;;;;;;;;;;;;;17.97;nan;100154.81;5021141;28;19921;-83
2023/09/13 05:13:32;;;;;;;;;;;;;;;18.06;nan;100163.44;5010935;28;19927;-83
2023/09/13 05:15:57;;;;;;;;;;;;;;;18.15;nan;100168.34;5028193;28;19917;-83
2023/09/13 05:18:23;;;;;;;;;;;;;;;18.22;nan;100173.69;5013166;28;20019;-83
2023/09/13 05:20:48;;;;;;;;;;;;;;;18.31;nan;100171.59;5020918;28;19929;-83
2023/09/13 05:23:13;;;;;;;;;;;;;;;18.37;nan;100187.63;5028042;28;19988;-82
2023/09/13 05:25:45;;;;;;;;;;;;;;;18.45;nan;100190.09;5028622;28;19931;-82
2023/09/13 05:28:13;;;;;;;;;;;;;;;18.52;nan;100190.06;5031524;28;19947;-82
2023/09/13 05:30:39;;;;;;;;;;;;;;;;;;5030755;28;19917;-83
2023/09/13 05:33:04;;;;;;;;;;;;;;;18.67;nan;100189.78;5018633;28;19984;-82
2023/09/13 05:35:30;;;;;;;;;;;;;;;18.74;nan;100187.09;5031582;28;20350;-82
2023/09/13 05:37:56;;;;;;;;;;;;;;;18.84;nan;100201.66;5029203;28;20003;-82
2023/09/13 05:40:21;;;;;;;;;;;;;;;;;;5018892;28;19960;-81
2023/09/13 05:42:46;;;;;;;;;;;;;;;18.98;nan;100210.47;5013723;28;20027;-82
2023/09/13 05:45:11;;;;;;;;;;;;;;;19.08;nan;100210.81;5024016;28;19920;-83
2023/09/13 05:47:36;;;;;;;;;;;;;;;19.19;nan;100221.91;5034715;28;20571;-82
2023/09/13 05:50:01;;;;;;;;;;;;;;;19.28;nan;100220.59;5013126;28;19956;-82
2023/09/13 05:52:27;;;;;;;;;;;;;;;19.34;nan;100226.97;5037366;28;19917;-82
2023/09/13 05:54:52;;;;;;;;;;;;;;;19.41;nan;100220.50;5031781;28;19955;-82
2023/09/13 05:57:17;;;;;;;;;;;;;;;19.48;nan;100226.63;5018489;28;19984;-83
2023/09/13 05:59:42;;;;;;;;;;;;;;;19.55;nan;100225.78;5026917;28;20414;-82
2023/09/13 06:02:07;;;;;;;;;;;;;;;19.62;nan;100234.59;5027269;28;19924;-82
2023/09/13 06:04:32;;;;;;;;;;;;;;;19.70;nan;100234.34;5027373;28;19925;-83
2023/09/13 06:06:58;;;;;;;;;;;;;;;19.79;nan;100237.59;5021831;28;20366;-83
2023/09/13 06:09:23;;;;;;;;;;;;;;;19.89;nan;100232.53;5032280;28;19917;-81
2023/09/13 06:11:48;;;;;;;;;;;;;;;19.96;nan;100249.41;5025590;28;20144;-82
2023/09/13 06:14:13;;;;;;;;;;;;;;;19.98;nan;100254.56;5007796;28;20036;-82
2023/09/13 06:16:38;;;;;;;;;;;;;;;20.01;nan;100248.75;5009175;28;19921;-82
2023/09/13 06:19:03;;;;;;;;;;;;;;;19.99;nan;100254.31;5008093;28;20020;-82
2023/09/13 06:21:29;;;;;;;;;;;;;;;;;;5024465;28;19917;-82
2023/09/13 06:23:54;;;;;;;;;;;;;;;19.91;nan;100263.47;5034854;28;19964;-80
2023/09/13 06:26:20;;;;;;;;;;;;;;;19.99;nan;100254.31;5026261;28;19952;-81
2023/09/13 06:28:45;;;;;;;;;;;;;;;20.09;nan;100264.53;5022456;28;19920;-80
2023/09/13 06:31:10;;;;;;;;;;;;;;;20.20;nan;100261.16;5021662;28;19918;-80
2023/09/13 06:33:35;;;;;;;;;;;;;;;20.27;nan;100272.63;5021201;28;20397;-81
2023/09/13 06:36:01;;;;;;;;;;;;;;;20.30;nan;100266.00;5020570;28;19921;-81
2023/09/13 06:38:26;;;;;;;;;;;;;;;20.31;nan;100268.47;5014350;28;19917;-79
2023/09/13 06:40:51;;;;;;;;;;;;;;;;;;5032532;28;19928;-79
2023/09/13 06:43:18;;;;;;;;;;;;;;;20.30;nan;100271.38;5031811;28;20378;-79
2023/09/13 06:45:43;;;;;;;;;;;;;;;20.31;nan;100268.47;5028268;28;19925;-79
2023/09/13 06:48:08;;;;;;;;;;;;;;;20.37;nan;100262.19;5033154;28;19919;-78
2023/09/13 06:50:33;;;;;;;;;;;;;;;20.48;nan;100259.84;5014316;28;19917;-79
2023/09/13 06:52:59;;;;;;;;;;;;;;;20.61;nan;100289.25;5029071;28;20290;-79
2023/09/13 06:55:24;;;;;;;;;;;;;;;20.79;nan;100281.19;5022596;28;19921;-79
2023/09/13 06:57:51;;;;;;;;;;;;;;;20.95;nan;100289.69;5031232;28;19917;-79
2023/09/13 07:00:16;;;;;;;;;;;;;;;21.07;nan;100287.06;5031037;28;19971;-79
2023/09/13 07:02:41;;;;;;;;;;;;;;;21.14;nan;100294.00;5025777;28;19972;-79
2023/09/13 07:05:06;;;;;;;;;;;;;;;21.23;nan;100307.94;5033505;28;19916;-78
2023/09/13 07:07:32;;;;;;;;;;;;;;;21.28;nan;100288.44;5027297;28;19917;-79
2023/09/13 07:09:57;;;;;;;;;;;;;;;21.30;nan;100299.78;5036601;28;19980;-79
2023/09/13 07:12:22;;;;;;;;;;;;;;;21.47;nan;100302.69;5034913;28;19921;-79
2023/09/13 07:14:47;;;;;;;;;;;;;;;21.69;nan;100316.41;5016172;28;19920;-79
2023/09/13 07:17:15;;;;;;;;;;;;;;;21.98;nan;100323.63;5028648;28;20377;-78
2023/09/13 07:19:40;;;;;;;;;;;;;;;22.41;nan;100329.78;5028812;28;20346;-78
2023/09/13 07:22:05;;;;;;;;;;;;;;;22.95;nan;100326.88;5027009;28;19916;-79
2023/09/13 07:24:33;;;;;;;;;;;;;;;23.70;nan;100336.72;5025285;28;19921;-79
2023/09/13 07:26:58;;;;;;;;;;;;;;;24.25;nan;100343.31;5015371;28;19971;-79
2023/09/13 07:29:23;;;;;;;;;;;;;;;24.34;nan;100339.13;5030811;28;20368;-79
2023/09/13 07:31:48;;;;;;;;;;;;;;;24.20;nan;100345.94;5031899;28;19932;-79
2023/09/13 07:34:15;;;;;;;;;;;;;;;23.89;nan;100350.84;5031838;28;19924;-79
2023/09/13 07:36:40;;;;;;;;;;;;;;;23.65;nan;100345.53;5027235;28;19924;-79
2023/09/13 07:39:06;;;;;;;;;;;;;;;23.51;nan;100350.41;5014001;28;20301;-79
2023/09/13 07:41:31;;;;;;;;;;;;;;;23.44;nan;100357.84;5015295;28;19921;-79
2023/09/13 07:43:57;;;;;;;;;;;;;;;23.40;nan;100356.66;5029661;28;19925;-79
2023/09/13 07:46:22;;;;;;;;;;;;;;;23.27;nan;100365.06;5029249;28;20373;-79
2023/09/13 07:48:47;;;;;;;;;;;;;;;;;;5026582;28;19929;-79
2023/09/13 07:51:12;;;;;;;;;;;;;;;22.99;nan;100363.97;5033420;28;20732;-79
2023/09/13 07:53:38;;;;;;;;;;;;;;;23.09;nan;100371.44;5033409;28;19972;-79
2023/09/13 07:56:03;;;;;;;;;;;;;;;23.41;nan;100376.41;5009158;28;19928;-80
2023/09/13 07:58:28;;;;;;;;;;;;;;;23.68;nan;100376.63;5033147;28;20422;-79
2023/09/13 08:00:53;;;;;;;;;;;;;;;23.86;nan;100378.31;5028427;28;19921;-79
2023/09/13 08:03:18;;;;;;;;;;;;;;;23.90;nan;100388.38;5032391;28;19959;-79
2023/09/13 08:05:45;;;;;;;;;;;;;;;24.05;nan;100381.59;5032296;28;20306;-79
2023/09/13 08:08:14;;;;;;;;;;;;;;;24.05;nan;100381.59;5030719;28;19917;-79
2023/09/13 08:10:40;;;;;;;;;;;;;;;24.01;nan;100391.28;5026446;28;19924;-79
2023/09/13 08:13:06;;;;;;;;;;;;;;;23.93;nan;100398.72;5014764;28;19921;-79
2023/09/13 08:15:31;;;;;;;;;;;;;;;23.91;nan;100410.84;5015949;28;20378;-78
2023/09/13 08:17:56;;;;;;;;;;;;;;;23.88;nan;100404.03;5014600;28;20287;-78
2023/09/13 08:20:21;;;;;;;;;;;;;;;23.87;nan;100406.97;5022232;28;19928;-78
2023/09/13 08:22:46;;;;;;;;;;;;;;;23.83;nan;100401.22;5027391;28;19921;-79
2023/09/13 08:25:11;;;;;;;;;;;;;;;23.82;nan;100406.88;5030490;28;19916;-78
2023/09/13 08:27:37;;;;;;;;;;;;;;;23.84;nan;100404.75;5027206;28;19921;-79
2023/09/13 08:30:03;;;;;;;;;;;;;;;23.73;nan;100395.63;5027447;28;20363;-78
2023/09/13 08:32:28;;;;;;;;;;;;;;;23.78;nan;100409.22;5016643;28;19979;-78
2023/09/13 08:34:55;;;;;;;;;;;;;;;23.85;nan;100399.09;5032146;28;19924;-78
2023/09/13 08:37:20;;;;;;;;;;;;;;;23.89;nan;100405.66;5033203;28;20007;-78
2023/09/13 08:39:46;;;;;;;;;;;;;;;23.99;nan;100405.03;5030530;28;19948;-78
2023/09/13 08:42:12;;;;;;;;;;;;;;;24.27;nan;100406.84;5025664;28;19921;-78
2023/09/13 08:44:38;;;;;;;;;;;;;;;24.56;nan;100414.91;5023972;28;19917;-78
2023/09/13 08:47:08;;;;;;;;;;;;;;;24.97;nan;100418.19;5027483;28;19917;-78
2023/09/13 08:49:34;;;;;;;;;;;;;;;25.39;nan;100428.50;5031493;28;20294;-79
2023/09/13 08:51:59;;;;;;;;;;;;;;;25.53;nan;100440.56;5033292;28;19924;-78
2023/09/13 08:54:25;;;;;;;;;;;;;;;25.66;nan;100431.22;5028895;28;19981;-78
2023/09/13 08:56:51;;;;;;;;;;;;;;;26.25;nan;100447.56;5026230;28;19939;-78
2023/09/13 08:59:17;;;;;;;;;;;;;;;26.89;nan;100437.75;5026793;28;20355;-78
2023/09/13 09:01:46;;;;;;;;;;;;;;;27.47;nan;100441.28;5025824;28;20100;-78
2023/09/13 09:04:14;;;;;;;;;;;;;;;27.59;nan;100440.25;5025718;28;19929;-78
2023/09/13 09:06:39;;;;;;;;;;;;;;;26.89;nan;100430.41;5028801;28;19917;-79
2023/09/13 09:09:04;;;;;;;;;;;;;;;26.52;nan;100435.03;5028473;28;19943;-78
2023/09/13 09:11:31;;;;;;;;;;;;;;;26.31;nan;100434.84;5028950;28;19922;-78
2023/09/13 09:13:57;;;;;;;;;;;;;;;26.31;nan;100429.44;5023734;28;19921;-79
2023/09/13 09:16:24;;;;;;;;;;;;;;;26.34;nan;100428.94;5026878;28;19932;-78
2023/09/13 09:18:52;;;;;;;;;;;;;;;26.42;nan;100433.06;5027134;28;19924;-79
2023/09/13 09:21:17;;;;;;;;;;;;;;;26.56;nan;100434.28;5028067;28;19945;-79
2023/09/13 09:23:43;;;;;;;;;;;;;;;26.71;nan;100427.31;5025785;28;19931;-79
2023/09/13 09:26:08;;;;;;;;;;;;;;;26.82;nan;100429.03;5020207;28;19917;-79
2023/09/13 09:28:34;;;;;;;;;;;;;;;27.03;nan;100440.78;5029413;28;20337;-78
2023/09/13 09:31:00;;;;;;;;;;;;;;;27.35;nan;100443.44;5021436;28;20294;-79
2023/09/13 09:33:28;;;;;;;;;;;;;;;27.46;nan;100439.69;5013575;28;20439;-78
2023/09/13 09:35:54;;;;;;;;;;;;;;;27.37;nan;100441.28;5031077;28;20023;-79
2023/09/13 09:38:20;;;;;;;;;;;;;;;27.15;nan;100422.41;5012970;28;20001;-79
2023/09/13 09:40:45;;;;;;;;;;;;;;;26.77;nan;100435.25;5024020;28;19944;-78
2023/09/13 09:43:11;;;;;;;;;;;;;;;26.57;nan;100441.31;5027985;28;20355;-78
2023/09/13 09:45:36;;;;;;;;;;;;;;;26.45;nan;100433.34;5027258;28;19917;-79
2023/09/13 09:48:01;;;;;;;;;;;;;;;26.22;nan;100453.50;5011273;28;19932;-78
2023/09/13 09:50:30;;;;;;;;;;;;;;;25.82;nan;100443.06;5027217;28;19928;-79
2023/09/13 09:52:55;;;;;;;;;;;;;;;25.41;nan;100432.59;5027300;28;20053;-79
2023/09/13 09:55:23;;;;;;;;;;;;;;;25.14;nan;100415.44;5013351;28;19948;-79
2023/09/13 09:57:49;;;;;;;;;;;;;;;24.80;nan;100421.75;5029691;28;19917;-78
2023/09/13 10:00:15;;;;;;;;;;;;;;;24.24;nan;100439.78;5030503;28;20441;-79
2023/09/13 10:02:43;;;;;;;;;;;;;;;23.54;nan;100428.19;5027455;28;20016;-78
2023/09/13 10:05:08;;;;;;;;;;;;;;;22.92;nan;100427.94;5029241;28;19924;-79
2023/09/13 10:07:40;;;;;;;;;;;;;;;22.43;nan;100432.75;5028441;28;19928;-78
2023/09/13 10:10:08;;;;;;;;;;;;;;;22.31;nan;100431.91;5017524;28;19968;-80
2023/09/13 10:12:42;;;;;;;;;;;;;;;22.18;nan;100427.50;5028838;28;20352;-78
2023/09/13 10:15:07;;;;;;;;;;;;;;;22.11;nan;100440.25;5030328;28;20023;-78
2023/09/13 10:17:33;;;;;;;;;;;;;;;22.29;nan;100445.63;5033961;28;20004;-79
2023/09/13 10:19:59;;;;;;;;;;;;;;;22.55;nan;100449.75;5033745;28;20019;-79
2023/09/13 10:22:28;;;;;;;;;;;;;;;22.79;nan;100450.59;5030660;28;20112;-79
2023/09/13 10:24:56;;;;;;;;;;;;;;;22.96;nan;100456.09;5014799;28;19972;-79
2023/09/13 10:27:22;;;;;;;;;;;;;;;22.98;nan;100443.22;5033487;28;20394;-78
2023/09/13 10:29:55;;;;;;;;;;;;;;;23.13;nan;100444.63;5031984;28;19921;-78
2023/09/13 10:32:22;;;;;;;;;;;;;;;23.26;nan;100449.75;5034269;28;19924;-79
2023/09/13 10:34:52;;;;;;;;;;;;;;;23.30;nan;100440.94;5033556;28;20305;-79
2023/09/13 10:37:36;;;;;;;;;;;;;;;23.35;nan;100453.72;5031187;28;19976;-78
2023/09/13 10:40:10;;;;;;;;;;;;;;;23.72;nan;100448.81;5033615;28;20016;-79
2023/09/13 10:42:36;;;;;;;;;;;;;;;24.50;nan;100464.53;5012920;28;19979;-78
2023/09/13 10:45:02;;;;;;;;;;;;;;;25.43;nan;100457.53;5033386;28;20424;-78
2023/09/13 10:47:28;;;;;;;;;;;;;;;27.13;nan;100470.72;5033889;28;19936;-78
2023/09/13 10:49:53;;;;;;;;;;;;;;;28.64;nan;100474.41;5030955;28;20051;-79
2023/09/13 10:52:19;;;;;;;;;;;;;;;29.80;nan;100472.44;5024909;28;19917;-79
2023/09/13 10:54:45;;;;;;;;;;;;;;;30.68;nan;100475.38;5035441;28;19917;-78
2023/09/13 10:57:11;;;;;;;;;;;;;;;31.26;nan;100477.22;5027094;28;19921;-79
2023/09/13 10:59:37;;;;;;;;;;;;;;;32.06;nan;100472.91;5030046;28;19975;-79
2023/09/13 11:02:05;;;;;;;;;;;;;;;32.96;nan;100484.53;5027099;28;19921;-79
2023/09/13 11:04:31;;;;;;;;;;;;;;;31.98;nan;100476.31;5033901;28;20013;-79
2023/09/13 11:06:57;;;;;;;;;;;;;;;30.60;nan;100476.78;5034417;28;19917;-79
2023/09/13 11:09:26;;;;;;;;;;;;;;;29.46;nan;100472.31;5030701;28;19948;-79
2023/09/13 11:11:52;;;;;;;;;;;;;;;28.63;nan;100472.75;5035474;28;19967;-79
2023/09/13 11:14:24;;;;;;;;;;;;;;;28.02;nan;100466.19;5020090;28;20000;-79
2023/09/13 11:16:49;;;;;;;;;;;;;;;27.51;nan;100474.19;5034711;28;19991;-79
2023/09/13 11:19:15;;;;;;;;;;;;;;;28.06;nan;100469.19;5036059;28;19921;-79
2023/09/13 11:21:49;;;;;;;;;;;;;;;29.75;nan;100464.31;5037621;28;19917;-79
2023/09/13 11:24:32;;;;;;;;;;;;;;;30.62;nan;100474.56;5015323;28;19921;-78
2023/09/13 11:27:08;;;;;;;;;;;;;;;30.86;nan;100473.84;5031513;28;19923;-79
2023/09/13 11:29:38;;;;;;;;;;;;;;;32.11;nan;100481.88;5033181;28;19976;-79
2023/09/13 11:32:04;;;;;;;;;;;;;;;31.21;nan;100480.81;5017413;28;19924;-79
2023/09/13 11:34:33;;;;;;;;;;;;;;;30.25;nan;100486.06;5033663;28;19936;-80
2023/09/13 11:37:00;;;;;;;;;;;;;;;29.13;nan;100480.06;5031764;28;19939;-79
2023/09/13 11:39:25;;;;;;;;;;;;;;;28.35;nan;100469.50;5031557;28;20007;-80
2023/09/13 11:41:51;;;;;;;;;;;;;;;27.66;nan;100476.94;5030924;28;20455;-80
2023/09/13 11:44:16;;;;;;;;;;;;;;;27.19;nan;100466.97;5031198;28;20349;-80
2023/09/13 11:46:42;;;;;;;;;;;;;;;26.79;nan;100462.94;5027839;28;19992;-80
2023/09/13 11:49:10;;;;;;;;;;;;;;;26.41;nan;100450.38;5031758;28;21017;-80
2023/09/13 11:51:44;;;;;;;;;;;;;;;26.03;nan;100471.22;5033400;28;20469;-80
2023/09/13 11:54:15;;;;;;;;;;;;;;;25.27;nan;100461.09;5032700;28;19968;-78
2023/09/13 11:56:43;;;;;;;;;;;;;;;24.67;nan;100476.19;5026106;28;19917;-79
2023/09/13 11:59:08;;;;;;;;;;;;;;;24.59;nan;100474.69;5027909;28;19924;-78
2023/09/13 12:01:34;;;;;;;;;;;;;;;24.67;nan;100472.63;5028920;28;19917;-79
2023/09/13 12:04:02;;;;;;;;;;;;;;;24.86;nan;100467.78;5025706;28;19929;-79
2023/09/13 12:06:27;;;;;;;;;;;;;;;24.90;nan;100468.94;5029499;28;19924;-79
2023/09/13 12:08:55;;;;;;;;;;;;;;;24.85;nan;100466.16;5031480;28;19917;-78
2023/09/13 12:11:20;;;;;;;;;;;;;;;24.92;nan;100473.03;5029014;28;19972;-79
2023/09/13 12:13:47;;;;;;;;;;;;;;;25.08;nan;100473.25;5028607;28;19921;-79
2023/09/13 12:16:12;;;;;;;;;;;;;;;25.17;nan;100469.91;5027845;28;19980;-79
2023/09/13 12:18:38;;;;;;;;;;;;;;;25.24;nan;100458.06;5028615;28;19925;-79
2023/09/13 12:21:06;;;;;;;;;;;;;;;25.40;nan;100463.41;5027865;28;20011;-79
2023/09/13 12:23:36;;;;;;;;;;;;;;;25.30;nan;100462.50;5031820;28;19948;-79
2023/09/13 12:26:04;;;;;;;;;;;;;;;25.41;nan;100464.25;5012734;28;19959;-79
2023/09/13 12:28:39;;;;;;;;;;;;;;;25.44;nan;100458.34;5029309;28;19928;-80
2023/09/13 12:31:17;;;;;;;;;;;;;;;25.31;nan;100464.94;5026185;28;19920;-80
2023/09/13 12:33:56;;;;;;;;;;;;;;;25.07;nan;100474.31;5025673;28;19924;-79
2023/09/13 12:36:24;;;;;;;;;;;;;;;24.83;nan;100468.28;5031594;28;20303;-79
2023/09/13 12:38:50;;;;;;;;;;;;;;;24.72;nan;100461.94;5012803;28;19918;-79
2023/09/13 12:41:26;;;;;;;;;;;;;;;24.58;nan;100466.84;5004170;28;19968;-79
2023/09/13 12:43:52;;;;;;;;;;;;;;;24.52;nan;100470.50;5029737;28;19924;-80
2023/09/13 12:46:18;;;;;;;;;;;;;;;24.43;nan;100469.25;5009942;28;19917;-79
2023/09/13 12:48:44;;;;;;;;;;;;;;;24.38;nan;100476.22;5024696;28;19917;-80
2023/09/13 12:51:10;;;;;;;;;;;;;;;24.05;nan;100468.06;5027763;28;20000;-80
2023/09/13 12:53:36;;;;;;;;;;;;;;;24.01;nan;100475.03;5029883;28;19917;-80
2023/09/13 12:56:01;;;;;;;;;;;;;;;23.99;nan;100475.25;5031355;28;19921;-80
2023/09/13 12:58:26;;;;;;;;;;;;;;;23.91;nan;100473.75;5030659;28;19921;-80